sensor_id;sensor_type;location;lat;lon;timestamp;P1;durP1;ratioP1;P2;durP2;ratioP2
20417;SDS011;10368;51.436;6.774;2023-02-15T00:02:02;31.20;;;18.83;;
20417;SDS011;10368;51.436;6.774;2023-02-15T00:04:29;30.27;;;18.67;;
20417;SDS011;10368;51.436;6.774;2023-02-15T00:07:15;37.87;;;22.83;;
20417;SDS011;10368;51.436;6.774;2023-02-15T00:09:47;32.50;;;19.33;;
20417;SDS011;10368;51.436;6.774;2023-02-15T00:12:15;27.30;;;18.30;;
20417;SDS011;10368;51.436;6.774;2023-02-15T00:14:42;28.13;;;17.60;;
20417;SDS011;10368;51.436;6.774;2023-02-15T00:17:09;33.17;;;19.33;;
20417;SDS011;10368;51.436;6.774;2023-02-15T00:19:37;28.83;;;17.47;;
20417;SDS011;10368;51.436;6.774;2023-02-15T00:22:04;27.77;;;18.20;;
20417;SDS011;10368;51.436;6.774;2023-02-15T00:24:31;31.57;;;18.77;;
20417;SDS011;10368;51.436;6.774;2023-02-15T00:26:59;26.87;;;17.67;;
20417;SDS011;10368;51.436;6.774;2023-02-15T00:29:26;25.70;;;17.53;;
20417;SDS011;10368;51.436;6.774;2023-02-15T00:31:54;40.40;;;22.67;;
20417;SDS011;10368;51.436;6.774;2023-02-15T00:34:22;34.60;;;19.50;;
20417;SDS011;10368;51.436;6.774;2023-02-15T00:36:49;31.40;;;19.07;;
20417;SDS011;10368;51.436;6.774;2023-02-15T00:39:17;34.70;;;20.97;;
20417;SDS011;10368;51.436;6.774;2023-02-15T00:41:45;30.13;;;18.83;;
20417;SDS011;10368;51.436;6.774;2023-02-15T00:44:12;26.93;;;18.33;;
20417;SDS011;10368;51.436;6.774;2023-02-15T00:46:39;26.53;;;18.53;;
20417;SDS011;10368;51.436;6.774;2023-02-15T00:49:07;31.73;;;19.07;;
20417;SDS011;10368;51.436;6.774;2023-02-15T00:51:34;26.50;;;18.07;;
20417;SDS011;10368;51.436;6.774;2023-02-15T00:54:01;32.73;;;18.80;;
20417;SDS011;10368;51.436;6.774;2023-02-15T00:56:28;33.03;;;20.60;;
20417;SDS011;10368;51.436;6.774;2023-02-15T00:58:55;32.73;;;20.43;;
20417;SDS011;10368;51.436;6.774;2023-02-15T01:01:22;31.13;;;19.23;;
20417;SDS011;10368;51.436;6.774;2023-02-15T01:03:50;29.83;;;19.10;;
20417;SDS011;10368;51.436;6.774;2023-02-15T01:06:17;30.57;;;19.83;;
20417;SDS011;10368;51.436;6.774;2023-02-15T01:08:45;30.83;;;18.70;;
20417;SDS011;10368;51.436;6.774;2023-02-15T01:11:16;27.50;;;18.57;;
20417;SDS011;10368;51.436;6.774;2023-02-15T01:13:51;31.77;;;20.33;;
20417;SDS011;10368;51.436;6.774;2023-02-15T01:16:18;30.60;;;19.03;;
20417;SDS011;10368;51.436;6.774;2023-02-15T01:18:46;25.40;;;17.87;;
20417;SDS011;10368;51.436;6.774;2023-02-15T01:21:14;32.30;;;18.80;;
20417;SDS011;10368;51.436;6.774;2023-02-15T01:23:42;31.47;;;19.13;;
20417;SDS011;10368;51.436;6.774;2023-02-15T01:26:09;29.63;;;19.53;;
20417;SDS011;10368;51.436;6.774;2023-02-15T01:28:36;30.50;;;19.43;;
20417;SDS011;10368;51.436;6.774;2023-02-15T01:31:07;29.30;;;17.90;;
20417;SDS011;10368;51.436;6.774;2023-02-15T01:33:34;33.37;;;20.60;;
20417;SDS011;10368;51.436;6.774;2023-02-15T01:36:02;31.00;;;18.80;;
20417;SDS011;10368;51.436;6.774;2023-02-15T01:38:29;30.00;;;19.27;;
20417;SDS011;10368;51.436;6.774;2023-02-15T01:40:57;31.23;;;20.20;;
20417;SDS011;10368;51.436;6.774;2023-02-15T01:43:45;30.63;;;20.97;;
20417;SDS011;10368;51.436;6.774;2023-02-15T01:46:14;27.97;;;18.43;;
20417;SDS011;10368;51.436;6.774;2023-02-15T01:48:50;30.20;;;18.77;;
20417;SDS011;10368;51.436;6.774;2023-02-15T01:51:19;33.47;;;19.33;;
20417;SDS011;10368;51.436;6.774;2023-02-15T01:53:52;32.13;;;20.30;;
20417;SDS011;10368;51.436;6.774;2023-02-15T01:56:21;26.97;;;18.30;;
20417;SDS011;10368;51.436;6.774;2023-02-15T01:58:50;34.97;;;20.60;;
20417;SDS011;10368;51.436;6.774;2023-02-15T02:01:18;31.97;;;20.67;;
20417;SDS011;10368;51.436;6.774;2023-02-15T02:06:13;36.23;;;19.33;;
20417;SDS011;10368;51.436;6.774;2023-02-15T02:08:41;31.57;;;20.43;;
20417;SDS011;10368;51.436;6.774;2023-02-15T02:11:14;31.27;;;19.73;;
20417;SDS011;10368;51.436;6.774;2023-02-15T02:13:42;33.90;;;19.70;;
20417;SDS011;10368;51.436;6.774;2023-02-15T02:16:12;28.20;;;17.97;;
20417;SDS011;10368;51.436;6.774;2023-02-15T02:18:44;30.87;;;18.73;;
20417;SDS011;10368;51.436;6.774;2023-02-15T02:34:20;29.77;;;19.37;;
20417;SDS011;10368;51.436;6.774;2023-02-15T02:36:59;34.73;;;21.93;;
20417;SDS011;10368;51.436;6.774;2023-02-15T02:39:41;33.30;;;19.73;;
20417;SDS011;10368;51.436;6.774;2023-02-15T02:44:59;31.90;;;20.20;;
20417;SDS011;10368;51.436;6.774;2023-02-15T02:50:02;34.63;;;20.40;;
20417;SDS011;10368;51.436;6.774;2023-02-15T02:55:04;37.60;;;21.77;;
20417;SDS011;10368;51.436;6.774;2023-02-15T02:57:32;32.90;;;19.20;;
20417;SDS011;10368;51.436;6.774;2023-02-15T03:00:02;33.73;;;20.27;;
20417;SDS011;10368;51.436;6.774;2023-02-15T03:02:32;32.77;;;19.90;;
20417;SDS011;10368;51.436;6.774;2023-02-15T03:05:03;29.77;;;18.70;;
20417;SDS011;10368;51.436;6.774;2023-02-15T03:07:32;38.67;;;20.87;;
20417;SDS011;10368;51.436;6.774;2023-02-15T03:10:00;37.90;;;21.97;;
20417;SDS011;10368;51.436;6.774;2023-02-15T03:12:35;33.20;;;20.53;;
20417;SDS011;10368;51.436;6.774;2023-02-15T03:17:31;35.43;;;21.40;;
20417;SDS011;10368;51.436;6.774;2023-02-15T03:20:01;35.50;;;20.17;;
20417;SDS011;10368;51.436;6.774;2023-02-15T03:22:37;32.23;;;20.67;;
20417;SDS011;10368;51.436;6.774;2023-02-15T03:25:40;34.67;;;21.23;;
20417;SDS011;10368;51.436;6.774;2023-02-15T03:27:59;35.57;;;21.93;;
20417;SDS011;10368;51.436;6.774;2023-02-15T03:30:29;33.43;;;21.13;;
20417;SDS011;10368;51.436;6.774;2023-02-15T03:32:57;31.70;;;20.73;;
20417;SDS011;10368;51.436;6.774;2023-02-15T03:35:26;36.47;;;21.70;;
20417;SDS011;10368;51.436;6.774;2023-02-15T03:37:59;38.77;;;21.10;;
20417;SDS011;10368;51.436;6.774;2023-02-15T03:40:28;36.00;;;21.70;;
20417;SDS011;10368;51.436;6.774;2023-02-15T03:45:58;34.67;;;20.13;;
20417;SDS011;10368;51.436;6.774;2023-02-15T03:48:39;34.20;;;20.33;;
20417;SDS011;10368;51.436;6.774;2023-02-15T03:51:26;32.03;;;20.17;;
20417;SDS011;10368;51.436;6.774;2023-02-15T03:54:01;32.97;;;20.97;;
20417;SDS011;10368;51.436;6.774;2023-02-15T03:56:29;30.50;;;19.57;;
20417;SDS011;10368;51.436;6.774;2023-02-15T03:58:56;34.43;;;20.90;;
20417;SDS011;10368;51.436;6.774;2023-02-15T04:01:47;35.30;;;21.87;;
20417;SDS011;10368;51.436;6.774;2023-02-15T04:04:37;31.83;;;19.37;;
20417;SDS011;10368;51.436;6.774;2023-02-15T04:07:06;33.80;;;20.90;;
20417;SDS011;10368;51.436;6.774;2023-02-15T04:09:33;35.10;;;20.37;;
20417;SDS011;10368;51.436;6.774;2023-02-15T04:12:19;35.30;;;21.57;;
20417;SDS011;10368;51.436;6.774;2023-02-15T04:14:47;31.83;;;19.17;;
20417;SDS011;10368;51.436;6.774;2023-02-15T04:17:32;32.73;;;19.90;;
20417;SDS011;10368;51.436;6.774;2023-02-15T04:19:59;39.17;;;21.20;;
20417;SDS011;10368;51.436;6.774;2023-02-15T04:22:46;41.33;;;22.97;;
20417;SDS011;10368;51.436;6.774;2023-02-15T04:25:31;37.33;;;20.67;;
20417;SDS011;10368;51.436;6.774;2023-02-15T04:28:00;44.77;;;21.20;;
20417;SDS011;10368;51.436;6.774;2023-02-15T04:30:27;34.03;;;20.10;;
20417;SDS011;10368;51.436;6.774;2023-02-15T04:32:54;34.13;;;20.70;;
20417;SDS011;10368;51.436;6.774;2023-02-15T04:35:23;34.77;;;21.50;;
20417;SDS011;10368;51.436;6.774;2023-02-15T04:37:50;39.77;;;20.53;;
20417;SDS011;10368;51.436;6.774;2023-02-15T04:40:17;39.57;;;22.67;;
20417;SDS011;10368;51.436;6.774;2023-02-15T04:42:47;38.30;;;22.27;;
20417;SDS011;10368;51.436;6.774;2023-02-15T04:45:15;36.93;;;21.17;;
20417;SDS011;10368;51.436;6.774;2023-02-15T04:47:42;39.33;;;21.03;;
20417;SDS011;10368;51.436;6.774;2023-02-15T04:50:09;37.17;;;21.70;;
20417;SDS011;10368;51.436;6.774;2023-02-15T04:52:39;37.80;;;22.53;;
20417;SDS011;10368;51.436;6.774;2023-02-15T04:55:06;38.00;;;22.23;;
20417;SDS011;10368;51.436;6.774;2023-02-15T04:57:33;34.60;;;21.43;;
20417;SDS011;10368;51.436;6.774;2023-02-15T05:00:01;38.30;;;23.07;;
20417;SDS011;10368;51.436;6.774;2023-02-15T05:02:28;45.63;;;22.57;;
20417;SDS011;10368;51.436;6.774;2023-02-15T05:04:55;47.23;;;21.73;;
20417;SDS011;10368;51.436;6.774;2023-02-15T05:07:22;38.17;;;22.80;;
20417;SDS011;10368;51.436;6.774;2023-02-15T05:09:49;39.17;;;20.87;;
20417;SDS011;10368;51.436;6.774;2023-02-15T05:12:17;36.33;;;22.40;;
20417;SDS011;10368;51.436;6.774;2023-02-15T05:14:44;40.63;;;23.17;;
20417;SDS011;10368;51.436;6.774;2023-02-15T05:17:11;42.93;;;22.57;;
20417;SDS011;10368;51.436;6.774;2023-02-15T05:19:38;42.87;;;24.63;;
20417;SDS011;10368;51.436;6.774;2023-02-15T05:22:05;35.50;;;22.27;;
20417;SDS011;10368;51.436;6.774;2023-02-15T05:24:32;39.00;;;20.53;;
20417;SDS011;10368;51.436;6.774;2023-02-15T05:27:18;39.27;;;21.80;;
20417;SDS011;10368;51.436;6.774;2023-02-15T05:30:04;37.60;;;21.77;;
20417;SDS011;10368;51.436;6.774;2023-02-15T05:32:32;37.77;;;22.00;;
20417;SDS011;10368;51.436;6.774;2023-02-15T05:34:59;39.00;;;22.10;;
20417;SDS011;10368;51.436;6.774;2023-02-15T05:37:26;46.70;;;22.33;;
20417;SDS011;10368;51.436;6.774;2023-02-15T05:39:53;37.37;;;22.07;;
20417;SDS011;10368;51.436;6.774;2023-02-15T05:42:20;41.47;;;23.23;;
20417;SDS011;10368;51.436;6.774;2023-02-15T05:44:47;39.53;;;22.83;;
20417;SDS011;10368;51.436;6.774;2023-02-15T05:47:14;39.20;;;22.23;;
20417;SDS011;10368;51.436;6.774;2023-02-15T05:49:41;38.10;;;21.93;;
20417;SDS011;10368;51.436;6.774;2023-02-15T05:52:09;41.97;;;23.33;;
20417;SDS011;10368;51.436;6.774;2023-02-15T05:54:38;37.33;;;21.97;;
20417;SDS011;10368;51.436;6.774;2023-02-15T05:57:05;38.83;;;21.57;;
20417;SDS011;10368;51.436;6.774;2023-02-15T05:59:32;35.87;;;22.13;;
20417;SDS011;10368;51.436;6.774;2023-02-15T06:01:59;44.93;;;23.20;;
20417;SDS011;10368;51.436;6.774;2023-02-15T06:04:26;37.70;;;20.63;;
20417;SDS011;10368;51.436;6.774;2023-02-15T06:06:53;43.57;;;22.33;;
20417;SDS011;10368;51.436;6.774;2023-02-15T06:09:20;41.87;;;25.60;;
20417;SDS011;10368;51.436;6.774;2023-02-15T06:11:48;40.57;;;22.50;;
20417;SDS011;10368;51.436;6.774;2023-02-15T06:14:15;44.60;;;24.07;;
20417;SDS011;10368;51.436;6.774;2023-02-15T06:16:42;33.87;;;20.87;;
20417;SDS011;10368;51.436;6.774;2023-02-15T06:19:09;40.60;;;21.80;;
20417;SDS011;10368;51.436;6.774;2023-02-15T06:21:36;34.23;;;20.70;;
20417;SDS011;10368;51.436;6.774;2023-02-15T06:24:04;44.30;;;21.10;;
20417;SDS011;10368;51.436;6.774;2023-02-15T06:26:31;37.37;;;22.27;;
20417;SDS011;10368;51.436;6.774;2023-02-15T06:28:58;37.87;;;20.67;;
20417;SDS011;10368;51.436;6.774;2023-02-15T06:31:26;45.10;;;20.50;;
20417;SDS011;10368;51.436;6.774;2023-02-15T06:33:54;39.17;;;20.80;;
20417;SDS011;10368;51.436;6.774;2023-02-15T06:36:30;39.50;;;22.33;;
20417;SDS011;10368;51.436;6.774;2023-02-15T06:38:57;37.20;;;21.47;;
20417;SDS011;10368;51.436;6.774;2023-02-15T06:41:25;38.37;;;21.80;;
20417;SDS011;10368;51.436;6.774;2023-02-15T06:43:52;55.60;;;22.90;;
20417;SDS011;10368;51.436;6.774;2023-02-15T06:46:19;47.00;;;22.93;;
20417;SDS011;10368;51.436;6.774;2023-02-15T06:48:46;45.03;;;23.43;;
20417;SDS011;10368;51.436;6.774;2023-02-15T06:51:13;43.87;;;24.20;;
20417;SDS011;10368;51.436;6.774;2023-02-15T06:53:41;47.10;;;22.33;;
20417;SDS011;10368;51.436;6.774;2023-02-15T06:56:09;38.00;;;22.17;;
20417;SDS011;10368;51.436;6.774;2023-02-15T06:58:39;36.83;;;21.43;;
20417;SDS011;10368;51.436;6.774;2023-02-15T07:01:07;42.30;;;23.23;;
20417;SDS011;10368;51.436;6.774;2023-02-15T07:03:35;38.87;;;21.97;;
20417;SDS011;10368;51.436;6.774;2023-02-15T07:06:03;33.30;;;20.50;;
20417;SDS011;10368;51.436;6.774;2023-02-15T07:08:34;36.73;;;21.27;;
20417;SDS011;10368;51.436;6.774;2023-02-15T07:11:02;39.20;;;21.77;;
20417;SDS011;10368;51.436;6.774;2023-02-15T07:13:48;43.57;;;21.37;;
20417;SDS011;10368;51.436;6.774;2023-02-15T07:16:15;37.73;;;22.10;;
20417;SDS011;10368;51.436;6.774;2023-02-15T07:18:43;40.37;;;20.93;;
20417;SDS011;10368;51.436;6.774;2023-02-15T07:21:10;43.83;;;23.37;;
20417;SDS011;10368;51.436;6.774;2023-02-15T07:23:37;40.70;;;23.20;;
20417;SDS011;10368;51.436;6.774;2023-02-15T07:26:05;34.60;;;20.37;;
20417;SDS011;10368;51.436;6.774;2023-02-15T07:28:33;38.07;;;21.23;;
20417;SDS011;10368;51.436;6.774;2023-02-15T07:31:04;34.80;;;21.07;;
20417;SDS011;10368;51.436;6.774;2023-02-15T07:33:32;37.77;;;21.47;;
20417;SDS011;10368;51.436;6.774;2023-02-15T07:36:00;37.07;;;20.47;;
20417;SDS011;10368;51.436;6.774;2023-02-15T07:38:38;36.13;;;21.20;;
20417;SDS011;10368;51.436;6.774;2023-02-15T07:41:06;36.10;;;21.27;;
20417;SDS011;10368;51.436;6.774;2023-02-15T07:43:35;37.83;;;20.83;;
20417;SDS011;10368;51.436;6.774;2023-02-15T07:46:03;37.87;;;20.47;;
20417;SDS011;10368;51.436;6.774;2023-02-15T07:48:30;35.93;;;20.93;;
20417;SDS011;10368;51.436;6.774;2023-02-15T07:50:58;36.60;;;21.13;;
20417;SDS011;10368;51.436;6.774;2023-02-15T07:53:25;41.50;;;21.07;;
20417;SDS011;10368;51.436;6.774;2023-02-15T07:55:52;37.90;;;20.87;;
20417;SDS011;10368;51.436;6.774;2023-02-15T07:58:21;35.17;;;20.40;;
20417;SDS011;10368;51.436;6.774;2023-02-15T08:01:08;34.20;;;20.17;;
20417;SDS011;10368;51.436;6.774;2023-02-15T08:03:35;34.07;;;19.47;;
20417;SDS011;10368;51.436;6.774;2023-02-15T08:06:02;37.13;;;19.90;;
20417;SDS011;10368;51.436;6.774;2023-02-15T08:08:30;37.33;;;19.83;;
20417;SDS011;10368;51.436;6.774;2023-02-15T08:11:14;31.00;;;20.23;;
20417;SDS011;10368;51.436;6.774;2023-02-15T08:13:52;34.70;;;20.03;;
20417;SDS011;10368;51.436;6.774;2023-02-15T08:16:30;33.97;;;18.10;;
20417;SDS011;10368;51.436;6.774;2023-02-15T08:18:58;32.03;;;18.97;;
20417;SDS011;10368;51.436;6.774;2023-02-15T08:21:26;31.70;;;19.83;;
20417;SDS011;10368;51.436;6.774;2023-02-15T08:23:54;32.70;;;18.10;;
20417;SDS011;10368;51.436;6.774;2023-02-15T08:26:22;30.90;;;18.90;;
20417;SDS011;10368;51.436;6.774;2023-02-15T08:28:50;34.10;;;20.07;;
20417;SDS011;10368;51.436;6.774;2023-02-15T08:31:18;32.83;;;19.87;;
20417;SDS011;10368;51.436;6.774;2023-02-15T08:33:46;33.07;;;19.27;;
20417;SDS011;10368;51.436;6.774;2023-02-15T08:36:15;36.20;;;19.50;;
20417;SDS011;10368;51.436;6.774;2023-02-15T08:38:43;30.70;;;19.13;;
20417;SDS011;10368;51.436;6.774;2023-02-15T08:41:14;28.07;;;18.07;;
20417;SDS011;10368;51.436;6.774;2023-02-15T08:43:42;31.20;;;18.27;;
20417;SDS011;10368;51.436;6.774;2023-02-15T08:46:10;28.60;;;18.90;;
20417;SDS011;10368;51.436;6.774;2023-02-15T08:48:37;33.80;;;18.70;;
20417;SDS011;10368;51.436;6.774;2023-02-15T08:51:05;28.47;;;19.13;;
20417;SDS011;10368;51.436;6.774;2023-02-15T08:53:33;36.90;;;22.53;;
20417;SDS011;10368;51.436;6.774;2023-02-15T08:56:00;27.20;;;16.47;;
20417;SDS011;10368;51.436;6.774;2023-02-15T08:58:28;28.73;;;18.27;;
20417;SDS011;10368;51.436;6.774;2023-02-15T09:00:55;34.67;;;18.83;;
20417;SDS011;10368;51.436;6.774;2023-02-15T09:03:23;27.43;;;17.33;;
20417;SDS011;10368;51.436;6.774;2023-02-15T09:05:50;31.70;;;17.07;;
20417;SDS011;10368;51.436;6.774;2023-02-15T09:08:17;26.77;;;18.37;;
20417;SDS011;10368;51.436;6.774;2023-02-15T09:10:44;26.03;;;18.17;;
20417;SDS011;10368;51.436;6.774;2023-02-15T09:13:12;24.13;;;16.77;;
20417;SDS011;10368;51.436;6.774;2023-02-15T09:15:40;23.23;;;17.47;;
20417;SDS011;10368;51.436;6.774;2023-02-15T09:18:07;23.53;;;14.87;;
20417;SDS011;10368;51.436;6.774;2023-02-15T09:20:35;24.33;;;16.73;;
20417;SDS011;10368;51.436;6.774;2023-02-15T09:23:02;30.50;;;16.30;;
20417;SDS011;10368;51.436;6.774;2023-02-15T09:25:30;22.17;;;15.70;;
20417;SDS011;10368;51.436;6.774;2023-02-15T09:27:57;27.07;;;16.93;;
20417;SDS011;10368;51.436;6.774;2023-02-15T09:30:24;24.93;;;15.63;;
20417;SDS011;10368;51.436;6.774;2023-02-15T09:32:51;26.07;;;16.53;;
20417;SDS011;10368;51.436;6.774;2023-02-15T09:35:18;34.63;;;18.30;;
20417;SDS011;10368;51.436;6.774;2023-02-15T09:37:45;24.17;;;17.27;;
20417;SDS011;10368;51.436;6.774;2023-02-15T09:40:13;26.87;;;16.63;;
20417;SDS011;10368;51.436;6.774;2023-02-15T09:42:48;23.20;;;15.53;;
20417;SDS011;10368;51.436;6.774;2023-02-15T09:45:22;25.40;;;15.43;;
20417;SDS011;10368;51.436;6.774;2023-02-15T10:04:19;22.17;;;15.63;;
20417;SDS011;10368;51.436;6.774;2023-02-15T10:06:55;25.37;;;16.93;;
20417;SDS011;10368;51.436;6.774;2023-02-15T10:20:00;27.87;;;16.00;;
20417;SDS011;10368;51.436;6.774;2023-02-15T10:22:43;23.37;;;15.00;;
20417;SDS011;10368;51.436;6.774;2023-02-15T10:27:45;21.97;;;14.93;;
20417;SDS011;10368;51.436;6.774;2023-02-15T10:43:37;19.67;;;14.60;;
20417;SDS011;10368;51.436;6.774;2023-02-15T10:48:41;23.53;;;15.40;;
20417;SDS011;10368;51.436;6.774;2023-02-15T10:54:09;21.33;;;14.90;;
20417;SDS011;10368;51.436;6.774;2023-02-15T11:07:03;17.83;;;14.20;;
20417;SDS011;10368;51.436;6.774;2023-02-15T11:09:38;18.03;;;13.77;;
20417;SDS011;10368;51.436;6.774;2023-02-15T11:12:12;19.60;;;14.53;;
20417;SDS011;10368;51.436;6.774;2023-02-15T11:14:49;20.43;;;13.93;;
20417;SDS011;10368;51.436;6.774;2023-02-15T11:17:24;19.83;;;14.80;;
20417;SDS011;10368;51.436;6.774;2023-02-15T11:22:30;18.80;;;14.60;;
20417;SDS011;10368;51.436;6.774;2023-02-15T11:24:58;18.08;;;15.57;;
20417;SDS011;10368;51.436;6.774;2023-02-15T11:27:31;17.10;;;14.73;;
20417;SDS011;10368;51.436;6.774;2023-02-15T11:37:32;17.80;;;15.32;;
20417;SDS011;10368;51.436;6.774;2023-02-15T11:40:01;16.13;;;14.48;;
20417;SDS011;10368;51.436;6.774;2023-02-15T11:42:30;18.83;;;16.30;;
20417;SDS011;10368;51.436;6.774;2023-02-15T11:45:04;16.08;;;14.23;;
20417;SDS011;10368;51.436;6.774;2023-02-15T11:47:38;15.27;;;13.68;;
20417;SDS011;10368;51.436;6.774;2023-02-15T11:50:05;17.80;;;14.63;;
20417;SDS011;10368;51.436;6.774;2023-02-15T11:52:33;17.25;;;15.48;;
20417;SDS011;10368;51.436;6.774;2023-02-15T11:55:00;15.85;;;13.57;;
20417;SDS011;10368;51.436;6.774;2023-02-15T11:59:57;16.10;;;14.35;;
20417;SDS011;10368;51.436;6.774;2023-02-15T12:02:27;19.80;;;14.50;;
20417;SDS011;10368;51.436;6.774;2023-02-15T12:05:06;15.85;;;13.43;;
20417;SDS011;10368;51.436;6.774;2023-02-15T12:12:34;15.43;;;13.82;;
20417;SDS011;10368;51.436;6.774;2023-02-15T12:15:05;17.05;;;13.68;;
20417;SDS011;10368;51.436;6.774;2023-02-15T12:17:34;16.38;;;14.23;;
20417;SDS011;10368;51.436;6.774;2023-02-15T12:20:47;15.75;;;12.55;;
20417;SDS011;10368;51.436;6.774;2023-02-15T12:22:50;15.13;;;13.38;;
20417;SDS011;10368;51.436;6.774;2023-02-15T12:27:55;14.98;;;12.68;;
20417;SDS011;10368;51.436;6.774;2023-02-15T12:30:30;17.17;;;14.60;;
20417;SDS011;10368;51.436;6.774;2023-02-15T12:35:30;14.52;;;12.73;;
20417;SDS011;10368;51.436;6.774;2023-02-15T12:40:29;13.98;;;11.88;;
20417;SDS011;10368;51.436;6.774;2023-02-15T12:42:57;15.43;;;12.05;;
20417;SDS011;10368;51.436;6.774;2023-02-15T12:50:40;16.83;;;13.88;;
20417;SDS011;10368;51.436;6.774;2023-02-15T12:55:56;13.63;;;11.85;;
20417;SDS011;10368;51.436;6.774;2023-02-15T12:58:28;17.65;;;15.18;;
20417;SDS011;10368;51.436;6.774;2023-02-15T13:03:35;16.73;;;12.43;;
20417;SDS011;10368;51.436;6.774;2023-02-15T13:06:04;16.00;;;12.75;;
20417;SDS011;10368;51.436;6.774;2023-02-15T13:08:37;12.57;;;11.27;;
20417;SDS011;10368;51.436;6.774;2023-02-15T13:11:25;13.43;;;12.02;;
20417;SDS011;10368;51.436;6.774;2023-02-15T13:14:00;16.77;;;11.90;;
20417;SDS011;10368;51.436;6.774;2023-02-15T13:19:12;13.32;;;11.18;;
20417;SDS011;10368;51.436;6.774;2023-02-15T13:21:44;14.75;;;11.57;;
20417;SDS011;10368;51.436;6.774;2023-02-15T13:24:36;15.50;;;12.00;;
20417;SDS011;10368;51.436;6.774;2023-02-15T13:27:12;15.60;;;11.65;;
20417;SDS011;10368;51.436;6.774;2023-02-15T13:29:49;16.92;;;12.25;;
20417;SDS011;10368;51.436;6.774;2023-02-15T13:34:52;14.15;;;11.13;;
20417;SDS011;10368;51.436;6.774;2023-02-15T13:40:04;14.48;;;12.27;;
20417;SDS011;10368;51.436;6.774;2023-02-15T13:43:01;16.67;;;12.40;;
20417;SDS011;10368;51.436;6.774;2023-02-15T13:46:09;16.98;;;12.65;;
20417;SDS011;10368;51.436;6.774;2023-02-15T13:51:38;17.85;;;13.02;;
20417;SDS011;10368;51.436;6.774;2023-02-15T14:05:32;18.80;;;13.27;;
20417;SDS011;10368;51.436;6.774;2023-02-15T14:08:17;18.00;;;11.43;;
20417;SDS011;10368;51.436;6.774;2023-02-15T14:16:45;16.92;;;13.38;;
20417;SDS011;10368;51.436;6.774;2023-02-15T14:19:39;19.33;;;13.13;;
20417;SDS011;10368;51.436;6.774;2023-02-15T14:22:34;17.00;;;13.30;;
20417;SDS011;10368;51.436;6.774;2023-02-15T14:30:21;15.07;;;12.52;;
20417;SDS011;10368;51.436;6.774;2023-02-15T14:32:53;17.38;;;12.02;;
20417;SDS011;10368;51.436;6.774;2023-02-15T14:35:25;15.48;;;12.38;;
20417;SDS011;10368;51.436;6.774;2023-02-15T14:49:13;16.13;;;12.00;;
20417;SDS011;10368;51.436;6.774;2023-02-15T14:54:10;14.48;;;11.73;;
20417;SDS011;10368;51.436;6.774;2023-02-15T15:07:24;16.23;;;12.90;;
20417;SDS011;10368;51.436;6.774;2023-02-15T15:15:00;18.20;;;13.60;;
20417;SDS011;10368;51.436;6.774;2023-02-15T15:20:19;17.25;;;13.48;;
20417;SDS011;10368;51.436;6.774;2023-02-15T15:28:54;18.80;;;13.32;;
20417;SDS011;10368;51.436;6.774;2023-02-15T15:42:16;16.52;;;13.25;;
20417;SDS011;10368;51.436;6.774;2023-02-15T15:50:10;16.95;;;13.25;;
20417;SDS011;10368;51.436;6.774;2023-02-15T15:52:38;17.73;;;12.75;;
20417;SDS011;10368;51.436;6.774;2023-02-15T15:55:14;18.00;;;12.93;;
20417;SDS011;10368;51.436;6.774;2023-02-15T15:57:43;17.38;;;12.73;;
20417;SDS011;10368;51.436;6.774;2023-02-15T16:02:53;19.48;;;16.35;;
20417;SDS011;10368;51.436;6.774;2023-02-15T16:05:22;18.83;;;14.65;;
20417;SDS011;10368;51.436;6.774;2023-02-15T16:07:49;19.40;;;14.48;;
20417;SDS011;10368;51.436;6.774;2023-02-15T16:12:47;19.80;;;14.07;;
20417;SDS011;10368;51.436;6.774;2023-02-15T16:17:44;20.17;;;13.57;;
20417;SDS011;10368;51.436;6.774;2023-02-15T16:22:48;18.93;;;12.87;;
20417;SDS011;10368;51.436;6.774;2023-02-15T16:25:28;25.30;;;14.47;;
20417;SDS011;10368;51.436;6.774;2023-02-15T16:28:05;17.50;;;13.30;;
20417;SDS011;10368;51.436;6.774;2023-02-15T16:30:33;28.87;;;15.77;;
20417;SDS011;10368;51.436;6.774;2023-02-15T16:33:07;18.03;;;14.10;;
20417;SDS011;10368;51.436;6.774;2023-02-15T16:35:36;21.30;;;14.13;;
20417;SDS011;10368;51.436;6.774;2023-02-15T16:38:04;18.27;;;13.63;;
20417;SDS011;10368;51.436;6.774;2023-02-15T16:43:05;18.13;;;13.63;;
20417;SDS011;10368;51.436;6.774;2023-02-15T16:45:33;20.83;;;14.87;;
20417;SDS011;10368;51.436;6.774;2023-02-15T16:48:05;19.73;;;15.57;;
20417;SDS011;10368;51.436;6.774;2023-02-15T16:50:35;22.13;;;14.57;;
20417;SDS011;10368;51.436;6.774;2023-02-15T16:53:04;21.87;;;14.47;;
20417;SDS011;10368;51.436;6.774;2023-02-15T16:55:42;22.30;;;14.23;;
20417;SDS011;10368;51.436;6.774;2023-02-15T16:58:13;19.63;;;13.40;;
20417;SDS011;10368;51.436;6.774;2023-02-15T17:00:42;19.50;;;14.60;;
20417;SDS011;10368;51.436;6.774;2023-02-15T17:05:47;22.70;;;16.53;;
20417;SDS011;10368;51.436;6.774;2023-02-15T17:16:35;19.07;;;15.30;;
20417;SDS011;10368;51.436;6.774;2023-02-15T17:21:58;21.43;;;14.37;;
20417;SDS011;10368;51.436;6.774;2023-02-15T17:26:58;22.80;;;15.67;;
20417;SDS011;10368;51.436;6.774;2023-02-15T17:29:58;23.67;;;16.93;;
20417;SDS011;10368;51.436;6.774;2023-02-15T17:32:27;20.67;;;15.37;;
20417;SDS011;10368;51.436;6.774;2023-02-15T17:37:41;18.57;;;14.90;;
20417;SDS011;10368;51.436;6.774;2023-02-15T17:42:45;22.20;;;13.60;;
20417;SDS011;10368;51.436;6.774;2023-02-15T17:45:13;21.43;;;15.87;;
20417;SDS011;10368;51.436;6.774;2023-02-15T17:47:41;22.60;;;14.37;;
20417;SDS011;10368;51.436;6.774;2023-02-15T17:50:14;26.80;;;16.67;;
20417;SDS011;10368;51.436;6.774;2023-02-15T17:52:42;21.73;;;15.63;;
20417;SDS011;10368;51.436;6.774;2023-02-15T17:55:13;19.27;;;13.83;;
20417;SDS011;10368;51.436;6.774;2023-02-15T17:58:00;19.20;;;14.00;;
20417;SDS011;10368;51.436;6.774;2023-02-15T18:00:28;20.27;;;14.47;;
20417;SDS011;10368;51.436;6.774;2023-02-15T18:03:14;16.97;;;12.90;;
20417;SDS011;10368;51.436;6.774;2023-02-15T18:06:01;17.43;;;14.33;;
20417;SDS011;10368;51.436;6.774;2023-02-15T18:08:47;21.27;;;13.73;;
20417;SDS011;10368;51.436;6.774;2023-02-15T18:11:36;19.33;;;14.93;;
20417;SDS011;10368;51.436;6.774;2023-02-15T18:14:03;18.90;;;13.57;;
20417;SDS011;10368;51.436;6.774;2023-02-15T18:16:35;28.17;;;15.33;;
20417;SDS011;10368;51.436;6.774;2023-02-15T18:19:03;19.30;;;14.07;;
20417;SDS011;10368;51.436;6.774;2023-02-15T18:21:31;20.73;;;14.37;;
20417;SDS011;10368;51.436;6.774;2023-02-15T18:23:59;20.70;;;14.37;;
20417;SDS011;10368;51.436;6.774;2023-02-15T18:26:26;20.40;;;13.20;;
20417;SDS011;10368;51.436;6.774;2023-02-15T18:28:54;22.77;;;15.17;;
20417;SDS011;10368;51.436;6.774;2023-02-15T18:31:21;14.97;;;13.27;;
20417;SDS011;10368;51.436;6.774;2023-02-15T18:33:51;18.33;;;14.23;;
20417;SDS011;10368;51.436;6.774;2023-02-15T18:36:21;20.97;;;13.57;;
20417;SDS011;10368;51.436;6.774;2023-02-15T18:38:48;16.93;;;13.70;;
20417;SDS011;10368;51.436;6.774;2023-02-15T18:41:16;17.27;;;13.60;;
20417;SDS011;10368;51.436;6.774;2023-02-15T18:43:44;19.67;;;14.40;;
20417;SDS011;10368;51.436;6.774;2023-02-15T18:46:12;19.27;;;14.70;;
20417;SDS011;10368;51.436;6.774;2023-02-15T18:48:39;20.87;;;14.83;;